sensor_id;sensor_type;location;lat;lon;timestamp;P1;durP1;ratioP1;P2;durP2;ratioP2
70946;SDS011;58605;48.700;8.760;2022-10-31T00:01:24;10.70;;;8.43;;
70946;SDS011;58605;48.700;8.760;2022-10-31T00:03:52;11.73;;;7.80;;
70946;SDS011;58605;48.700;8.760;2022-10-31T00:06:18;8.60;;;7.20;;
70946;SDS011;58605;48.700;8.760;2022-10-31T00:08:44;8.90;;;7.57;;
70946;SDS011;58605;48.700;8.760;2022-10-31T00:11:12;8.97;;;6.47;;
70946;SDS011;58605;48.700;8.760;2022-10-31T00:13:38;9.00;;;6.07;;
70946;SDS011;58605;48.700;8.760;2022-10-31T00:16:05;10.00;;;6.37;;
70946;SDS011;58605;48.700;8.760;2022-10-31T00:18:37;6.47;;;5.50;;
70946;SDS011;58605;48.700;8.760;2022-10-31T00:21:03;10.87;;;6.00;;
70946;SDS011;58605;48.700;8.760;2022-10-31T00:23:30;9.73;;;5.83;;
70946;SDS011;58605;48.700;8.760;2022-10-31T00:25:59;7.97;;;6.00;;
70946;SDS011;58605;48.700;8.760;2022-10-31T00:28:27;9.40;;;6.47;;
70946;SDS011;58605;48.700;8.760;2022-10-31T00:30:57;9.13;;;7.30;;
70946;SDS011;58605;48.700;8.760;2022-10-31T00:33:24;8.50;;;6.33;;
70946;SDS011;58605;48.700;8.760;2022-10-31T00:35:50;9.87;;;6.40;;
70946;SDS011;58605;48.700;8.760;2022-10-31T00:38:16;9.87;;;7.10;;
70946;SDS011;58605;48.700;8.760;2022-10-31T00:40:42;9.27;;;6.93;;
70946;SDS011;58605;48.700;8.760;2022-10-31T00:43:08;9.13;;;6.40;;
70946;SDS011;58605;48.700;8.760;2022-10-31T00:45:36;14.40;;;7.07;;
70946;SDS011;58605;48.700;8.760;2022-10-31T00:48:02;9.07;;;6.90;;
70946;SDS011;58605;48.700;8.760;2022-10-31T00:50:28;12.60;;;6.43;;
70946;SDS011;58605;48.700;8.760;2022-10-31T00:52:54;12.27;;;6.83;;
70946;SDS011;58605;48.700;8.760;2022-10-31T00:55:20;11.40;;;6.57;;
70946;SDS011;58605;48.700;8.760;2022-10-31T00:57:47;11.20;;;6.97;;
70946;SDS011;58605;48.700;8.760;2022-10-31T01:00:13;8.90;;;7.20;;
70946;SDS011;58605;48.700;8.760;2022-10-31T01:02:41;10.03;;;6.83;;
70946;SDS011;58605;48.700;8.760;2022-10-31T01:05:07;11.80;;;6.07;;
70946;SDS011;58605;48.700;8.760;2022-10-31T01:07:35;12.27;;;7.13;;
70946;SDS011;58605;48.700;8.760;2022-10-31T01:10:01;8.23;;;5.77;;
70946;SDS011;58605;48.700;8.760;2022-10-31T01:12:27;10.70;;;7.00;;
70946;SDS011;58605;48.700;8.760;2022-10-31T01:14:53;7.73;;;6.43;;
70946;SDS011;58605;48.700;8.760;2022-10-31T01:17:19;9.17;;;6.93;;
70946;SDS011;58605;48.700;8.760;2022-10-31T01:19:46;7.73;;;5.90;;
70946;SDS011;58605;48.700;8.760;2022-10-31T01:22:12;9.30;;;5.83;;
70946;SDS011;58605;48.700;8.760;2022-10-31T01:24:38;7.07;;;5.97;;
70946;SDS011;58605;48.700;8.760;2022-10-31T01:27:04;6.93;;;5.63;;
70946;SDS011;58605;48.700;8.760;2022-10-31T01:29:30;8.37;;;6.50;;
70946;SDS011;58605;48.700;8.760;2022-10-31T01:31:56;13.27;;;7.53;;
70946;SDS011;58605;48.700;8.760;2022-10-31T01:34:22;8.93;;;7.13;;
70946;SDS011;58605;48.700;8.760;2022-10-31T01:36:50;9.90;;;6.67;;
70946;SDS011;58605;48.700;8.760;2022-10-31T01:39:16;10.10;;;7.60;;
70946;SDS011;58605;48.700;8.760;2022-10-31T01:41:45;10.07;;;6.47;;
70946;SDS011;58605;48.700;8.760;2022-10-31T01:47:17;11.10;;;7.30;;
70946;SDS011;58605;48.700;8.760;2022-10-31T01:49:54;13.13;;;7.40;;
70946;SDS011;58605;48.700;8.760;2022-10-31T01:52:26;8.43;;;6.73;;
70946;SDS011;58605;48.700;8.760;2022-10-31T01:54:56;13.93;;;8.10;;
70946;SDS011;58605;48.700;8.760;2022-10-31T01:57:26;9.43;;;7.80;;
70946;SDS011;58605;48.700;8.760;2022-10-31T01:59:54;11.77;;;6.90;;
70946;SDS011;58605;48.700;8.760;2022-10-31T02:02:24;8.90;;;6.80;;
70946;SDS011;58605;48.700;8.760;2022-10-31T02:04:52;10.63;;;6.40;;
70946;SDS011;58605;48.700;8.760;2022-10-31T02:07:20;9.00;;;6.37;;
70946;SDS011;58605;48.700;8.760;2022-10-31T02:09:52;9.63;;;6.43;;
70946;SDS011;58605;48.700;8.760;2022-10-31T02:12:19;12.70;;;7.50;;
70946;SDS011;58605;48.700;8.760;2022-10-31T02:14:45;8.70;;;5.63;;
70946;SDS011;58605;48.700;8.760;2022-10-31T02:17:11;7.83;;;5.97;;
70946;SDS011;58605;48.700;8.760;2022-10-31T02:19:39;9.80;;;5.87;;
70946;SDS011;58605;48.700;8.760;2022-10-31T02:22:12;10.63;;;5.90;;
70946;SDS011;58605;48.700;8.760;2022-10-31T02:24:46;10.83;;;6.50;;
70946;SDS011;58605;48.700;8.760;2022-10-31T02:27:33;7.07;;;6.23;;
70946;SDS011;58605;48.700;8.760;2022-10-31T02:30:22;7.30;;;6.10;;
70946;SDS011;58605;48.700;8.760;2022-10-31T02:32:54;7.83;;;5.97;;
70946;SDS011;58605;48.700;8.760;2022-10-31T02:38:18;8.03;;;5.97;;
70946;SDS011;58605;48.700;8.760;2022-10-31T02:40:51;8.07;;;6.30;;
70946;SDS011;58605;48.700;8.760;2022-10-31T02:43:29;8.73;;;6.50;;
70946;SDS011;58605;48.700;8.760;2022-10-31T02:46:01;8.40;;;6.57;;
70946;SDS011;58605;48.700;8.760;2022-10-31T02:48:35;8.97;;;7.07;;
70946;SDS011;58605;48.700;8.760;2022-10-31T02:51:05;10.77;;;6.77;;
70946;SDS011;58605;48.700;8.760;2022-10-31T02:53:32;8.77;;;7.00;;
70946;SDS011;58605;48.700;8.760;2022-10-31T02:56:00;8.10;;;6.50;;
70946;SDS011;58605;48.700;8.760;2022-10-31T02:58:31;10.67;;;7.50;;
70946;SDS011;58605;48.700;8.760;2022-10-31T03:01:20;10.67;;;7.20;;
70946;SDS011;58605;48.700;8.760;2022-10-31T03:04:15;9.53;;;7.07;;
70946;SDS011;58605;48.700;8.760;2022-10-31T03:06:49;14.93;;;7.17;;
70946;SDS011;58605;48.700;8.760;2022-10-31T03:09:24;7.70;;;6.60;;
70946;SDS011;58605;48.700;8.760;2022-10-31T03:11:58;7.73;;;6.93;;
70946;SDS011;58605;48.700;8.760;2022-10-31T03:14:33;10.40;;;6.93;;
70946;SDS011;58605;48.700;8.760;2022-10-31T03:17:07;9.73;;;6.93;;
70946;SDS011;58605;48.700;8.760;2022-10-31T03:19:40;9.00;;;6.87;;
70946;SDS011;58605;48.700;8.760;2022-10-31T03:22:10;10.03;;;7.23;;
70946;SDS011;58605;48.700;8.760;2022-10-31T03:24:41;7.33;;;5.70;;
70946;SDS011;58605;48.700;8.760;2022-10-31T03:27:08;8.07;;;6.17;;
70946;SDS011;58605;48.700;8.760;2022-10-31T03:29:37;10.27;;;5.80;;
70946;SDS011;58605;48.700;8.760;2022-10-31T03:32:06;8.93;;;6.27;;
70946;SDS011;58605;48.700;8.760;2022-10-31T03:34:35;8.57;;;6.20;;
70946;SDS011;58605;48.700;8.760;2022-10-31T03:37:06;7.37;;;6.00;;
70946;SDS011;58605;48.700;8.760;2022-10-31T03:39:35;8.47;;;6.17;;
70946;SDS011;58605;48.700;8.760;2022-10-31T03:42:04;10.50;;;6.73;;
70946;SDS011;58605;48.700;8.760;2022-10-31T03:44:33;7.87;;;6.10;;
70946;SDS011;58605;48.700;8.760;2022-10-31T03:47:00;11.47;;;6.43;;
70946;SDS011;58605;48.700;8.760;2022-10-31T03:49:28;8.07;;;7.23;;
70946;SDS011;58605;48.700;8.760;2022-10-31T03:51:57;12.60;;;6.17;;
70946;SDS011;58605;48.700;8.760;2022-10-31T03:54:30;7.93;;;5.83;;
70946;SDS011;58605;48.700;8.760;2022-10-31T03:57:06;12.47;;;6.83;;
70946;SDS011;58605;48.700;8.760;2022-10-31T03:59:37;11.20;;;6.40;;
70946;SDS011;58605;48.700;8.760;2022-10-31T04:02:07;9.03;;;6.97;;
70946;SDS011;58605;48.700;8.760;2022-10-31T04:04:37;12.83;;;6.83;;
70946;SDS011;58605;48.700;8.760;2022-10-31T04:07:05;9.90;;;5.63;;
70946;SDS011;58605;48.700;8.760;2022-10-31T04:09:33;9.17;;;6.40;;
70946;SDS011;58605;48.700;8.760;2022-10-31T04:12:02;7.20;;;6.17;;
70946;SDS011;58605;48.700;8.760;2022-10-31T04:14:33;8.87;;;6.50;;
70946;SDS011;58605;48.700;8.760;2022-10-31T04:17:01;9.40;;;6.53;;
70946;SDS011;58605;48.700;8.760;2022-10-31T04:19:31;9.87;;;6.70;;
70946;SDS011;58605;48.700;8.760;2022-10-31T04:21:57;8.67;;;6.83;;
70946;SDS011;58605;48.700;8.760;2022-10-31T04:24:25;9.97;;;6.67;;
70946;SDS011;58605;48.700;8.760;2022-10-31T04:26:51;11.13;;;7.33;;
70946;SDS011;58605;48.700;8.760;2022-10-31T04:29:17;13.03;;;7.67;;
70946;SDS011;58605;48.700;8.760;2022-10-31T04:31:43;8.97;;;7.07;;
70946;SDS011;58605;48.700;8.760;2022-10-31T04:34:08;10.63;;;7.23;;
70946;SDS011;58605;48.700;8.760;2022-10-31T04:36:34;9.40;;;7.40;;
70946;SDS011;58605;48.700;8.760;2022-10-31T04:39:00;11.73;;;6.93;;
70946;SDS011;58605;48.700;8.760;2022-10-31T04:41:28;10.07;;;7.33;;
70946;SDS011;58605;48.700;8.760;2022-10-31T04:43:54;10.60;;;7.07;;
70946;SDS011;58605;48.700;8.760;2022-10-31T04:46:20;9.90;;;7.10;;
70946;SDS011;58605;48.700;8.760;2022-10-31T04:48:46;8.50;;;7.50;;
70946;SDS011;58605;48.700;8.760;2022-10-31T04:51:11;9.27;;;6.40;;
70946;SDS011;58605;48.700;8.760;2022-10-31T04:53:37;7.77;;;6.90;;
70946;SDS011;58605;48.700;8.760;2022-10-31T04:56:04;8.27;;;6.30;;
70946;SDS011;58605;48.700;8.760;2022-10-31T04:58:31;9.27;;;6.40;;
70946;SDS011;58605;48.700;8.760;2022-10-31T05:00:57;10.90;;;7.00;;
70946;SDS011;58605;48.700;8.760;2022-10-31T05:03:23;7.23;;;6.13;;
70946;SDS011;58605;48.700;8.760;2022-10-31T05:05:49;6.90;;;6.20;;
70946;SDS011;58605;48.700;8.760;2022-10-31T05:08:15;9.83;;;6.60;;
70946;SDS011;58605;48.700;8.760;2022-10-31T05:10:41;8.57;;;6.60;;
70946;SDS011;58605;48.700;8.760;2022-10-31T05:13:07;8.13;;;6.20;;
70946;SDS011;58605;48.700;8.760;2022-10-31T05:15:35;7.97;;;6.00;;
70946;SDS011;58605;48.700;8.760;2022-10-31T05:18:01;7.73;;;6.17;;
70946;SDS011;58605;48.700;8.760;2022-10-31T05:20:28;11.13;;;5.93;;
70946;SDS011;58605;48.700;8.760;2022-10-31T05:22:55;6.93;;;5.60;;
70946;SDS011;58605;48.700;8.760;2022-10-31T05:25:23;7.33;;;6.30;;
70946;SDS011;58605;48.700;8.760;2022-10-31T05:27:51;13.77;;;5.63;;
70946;SDS011;58605;48.700;8.760;2022-10-31T05:30:26;9.47;;;6.53;;
70946;SDS011;58605;48.700;8.760;2022-10-31T05:32:54;9.97;;;5.37;;
70946;SDS011;58605;48.700;8.760;2022-10-31T05:35:21;6.97;;;6.23;;
70946;SDS011;58605;48.700;8.760;2022-10-31T05:37:49;8.37;;;6.57;;
70946;SDS011;58605;48.700;8.760;2022-10-31T05:40:15;8.43;;;6.07;;
70946;SDS011;58605;48.700;8.760;2022-10-31T05:42:43;7.43;;;6.20;;
70946;SDS011;58605;48.700;8.760;2022-10-31T05:45:10;8.77;;;5.57;;
70946;SDS011;58605;48.700;8.760;2022-10-31T05:47:38;9.13;;;6.57;;
70946;SDS011;58605;48.700;8.760;2022-10-31T05:50:06;9.27;;;6.37;;
70946;SDS011;58605;48.700;8.760;2022-10-31T05:52:33;6.63;;;5.90;;
70946;SDS011;58605;48.700;8.760;2022-10-31T05:54:59;6.60;;;5.83;;
70946;SDS011;58605;48.700;8.760;2022-10-31T05:57:25;6.63;;;5.93;;
70946;SDS011;58605;48.700;8.760;2022-10-31T05:59:51;10.90;;;5.93;;
70946;SDS011;58605;48.700;8.760;2022-10-31T06:02:20;6.97;;;5.13;;
70946;SDS011;58605;48.700;8.760;2022-10-31T06:04:46;11.67;;;6.40;;
70946;SDS011;58605;48.700;8.760;2022-10-31T06:07:14;6.10;;;5.17;;
70946;SDS011;58605;48.700;8.760;2022-10-31T06:09:40;6.33;;;4.90;;
70946;SDS011;58605;48.700;8.760;2022-10-31T06:12:06;6.97;;;5.40;;
70946;SDS011;58605;48.700;8.760;2022-10-31T06:14:32;6.93;;;6.00;;
70946;SDS011;58605;48.700;8.760;2022-10-31T06:16:58;8.67;;;5.53;;
70946;SDS011;58605;48.700;8.760;2022-10-31T06:19:23;9.30;;;6.20;;
70946;SDS011;58605;48.700;8.760;2022-10-31T06:21:49;12.47;;;6.70;;
70946;SDS011;58605;48.700;8.760;2022-10-31T06:24:17;9.60;;;6.13;;
70946;SDS011;58605;48.700;8.760;2022-10-31T06:26:43;8.23;;;5.90;;
70946;SDS011;58605;48.700;8.760;2022-10-31T06:29:08;12.97;;;6.60;;
70946;SDS011;58605;48.700;8.760;2022-10-31T06:31:34;8.27;;;6.63;;
70946;SDS011;58605;48.700;8.760;2022-10-31T06:34:00;10.00;;;6.43;;
70946;SDS011;58605;48.700;8.760;2022-10-31T06:36:26;8.60;;;5.80;;
70946;SDS011;58605;48.700;8.760;2022-10-31T06:38:52;9.80;;;6.77;;
70946;SDS011;58605;48.700;8.760;2022-10-31T06:41:20;7.53;;;6.43;;
70946;SDS011;58605;48.700;8.760;2022-10-31T06:43:46;9.90;;;7.43;;
70946;SDS011;58605;48.700;8.760;2022-10-31T06:46:12;7.77;;;6.97;;
70946;SDS011;58605;48.700;8.760;2022-10-31T06:48:39;8.77;;;6.13;;
70946;SDS011;58605;48.700;8.760;2022-10-31T06:51:05;8.87;;;6.67;;
70946;SDS011;58605;48.700;8.760;2022-10-31T06:53:31;9.47;;;7.43;;
70946;SDS011;58605;48.700;8.760;2022-10-31T06:55:57;9.17;;;6.53;;
70946;SDS011;58605;48.700;8.760;2022-10-31T06:58:24;9.20;;;6.00;;
70946;SDS011;58605;48.700;8.760;2022-10-31T07:00:50;10.50;;;6.73;;
70946;SDS011;58605;48.700;8.760;2022-10-31T07:03:16;7.73;;;6.90;;
70946;SDS011;58605;48.700;8.760;2022-10-31T07:05:43;7.90;;;5.90;;
70946;SDS011;58605;48.700;8.760;2022-10-31T07:08:09;9.20;;;6.10;;
70946;SDS011;58605;48.700;8.760;2022-10-31T07:10:37;7.40;;;6.70;;
70946;SDS011;58605;48.700;8.760;2022-10-31T07:13:05;7.87;;;5.70;;
70946;SDS011;58605;48.700;8.760;2022-10-31T07:15:34;6.73;;;6.13;;
70946;SDS011;58605;48.700;8.760;2022-10-31T07:18:02;8.50;;;6.20;;
70946;SDS011;58605;48.700;8.760;2022-10-31T07:20:28;14.23;;;7.90;;
70946;SDS011;58605;48.700;8.760;2022-10-31T07:22:57;11.73;;;8.90;;
70946;SDS011;58605;48.700;8.760;2022-10-31T07:25:23;9.10;;;7.17;;
70946;SDS011;58605;48.700;8.760;2022-10-31T07:27:50;11.53;;;7.57;;
70946;SDS011;58605;48.700;8.760;2022-10-31T07:30:16;11.10;;;7.87;;
70946;SDS011;58605;48.700;8.760;2022-10-31T07:32:45;11.77;;;7.13;;
70946;SDS011;58605;48.700;8.760;2022-10-31T07:35:13;10.37;;;7.77;;
70946;SDS011;58605;48.700;8.760;2022-10-31T07:37:40;11.73;;;7.80;;
70946;SDS011;58605;48.700;8.760;2022-10-31T07:40:07;11.47;;;7.23;;
70946;SDS011;58605;48.700;8.760;2022-10-31T07:42:34;12.57;;;6.67;;
70946;SDS011;58605;48.700;8.760;2022-10-31T07:45:01;12.60;;;7.40;;
70946;SDS011;58605;48.700;8.760;2022-10-31T07:47:27;9.20;;;7.23;;
70946;SDS011;58605;48.700;8.760;2022-10-31T07:49:54;15.50;;;7.30;;
70946;SDS011;58605;48.700;8.760;2022-10-31T07:52:20;10.13;;;8.40;;
70946;SDS011;58605;48.700;8.760;2022-10-31T07:54:46;14.27;;;7.43;;
70946;SDS011;58605;48.700;8.760;2022-10-31T07:57:12;13.43;;;8.97;;
70946;SDS011;58605;48.700;8.760;2022-10-31T07:59:38;10.83;;;8.00;;
70946;SDS011;58605;48.700;8.760;2022-10-31T08:02:04;17.73;;;8.93;;
70946;SDS011;58605;48.700;8.760;2022-10-31T08:04:30;12.70;;;7.93;;
70946;SDS011;58605;48.700;8.760;2022-10-31T08:06:57;10.80;;;8.33;;
70946;SDS011;58605;48.700;8.760;2022-10-31T08:09:23;10.17;;;7.83;;
70946;SDS011;58605;48.700;8.760;2022-10-31T08:11:49;11.87;;;7.27;;
70946;SDS011;58605;48.700;8.760;2022-10-31T08:14:15;8.83;;;7.47;;
70946;SDS011;58605;48.700;8.760;2022-10-31T08:16:41;12.63;;;8.70;;
70946;SDS011;58605;48.700;8.760;2022-10-31T08:19:07;12.87;;;8.63;;
70946;SDS011;58605;48.700;8.760;2022-10-31T08:21:33;13.67;;;8.47;;
70946;SDS011;58605;48.700;8.760;2022-10-31T08:24:00;14.07;;;8.10;;
70946;SDS011;58605;48.700;8.760;2022-10-31T08:26:26;11.17;;;7.37;;
70946;SDS011;58605;48.700;8.760;2022-10-31T08:28:52;7.67;;;6.60;;
70946;SDS011;58605;48.700;8.760;2022-10-31T08:31:19;10.50;;;8.00;;
70946;SDS011;58605;48.700;8.760;2022-10-31T08:33:45;10.27;;;7.53;;
70946;SDS011;58605;48.700;8.760;2022-10-31T08:36:11;9.10;;;7.77;;
70946;SDS011;58605;48.700;8.760;2022-10-31T08:38:37;12.23;;;8.53;;
70946;SDS011;58605;48.700;8.760;2022-10-31T08:41:05;11.37;;;7.90;;
70946;SDS011;58605;48.700;8.760;2022-10-31T08:43:30;9.80;;;7.60;;
70946;SDS011;58605;48.700;8.760;2022-10-31T08:45:56;10.17;;;7.17;;
70946;SDS011;58605;48.700;8.760;2022-10-31T08:48:22;10.73;;;7.20;;
70946;SDS011;58605;48.700;8.760;2022-10-31T08:50:48;11.53;;;7.70;;
70946;SDS011;58605;48.700;8.760;2022-10-31T08:53:15;11.83;;;8.00;;
70946;SDS011;58605;48.700;8.760;2022-10-31T08:55:42;11.87;;;7.47;;
70946;SDS011;58605;48.700;8.760;2022-10-31T08:58:11;7.93;;;6.77;;
70946;SDS011;58605;48.700;8.760;2022-10-31T09:00:38;9.27;;;6.33;;
70946;SDS011;58605;48.700;8.760;2022-10-31T09:03:05;9.53;;;5.83;;
70946;SDS011;58605;48.700;8.760;2022-10-31T09:05:35;7.33;;;6.00;;
70946;SDS011;58605;48.700;8.760;2022-10-31T09:08:01;8.67;;;6.50;;
70946;SDS011;58605;48.700;8.760;2022-10-31T09:10:29;9.50;;;7.17;;
70946;SDS011;58605;48.700;8.760;2022-10-31T09:12:56;9.53;;;7.33;;
70946;SDS011;58605;48.700;8.760;2022-10-31T09:15:24;12.27;;;7.47;;
70946;SDS011;58605;48.700;8.760;2022-10-31T09:17:50;10.93;;;7.43;;
70946;SDS011;58605;48.700;8.760;2022-10-31T09:20:16;8.83;;;7.60;;
70946;SDS011;58605;48.700;8.760;2022-10-31T09:22:42;16.20;;;8.23;;
70946;SDS011;58605;48.700;8.760;2022-10-31T09:25:08;9.23;;;7.80;;
70946;SDS011;58605;48.700;8.760;2022-10-31T09:27:34;9.70;;;6.90;;
70946;SDS011;58605;48.700;8.760;2022-10-31T09:30:00;8.13;;;6.33;;
70946;SDS011;58605;48.700;8.760;2022-10-31T09:32:27;9.10;;;6.63;;
70946;SDS011;58605;48.700;8.760;2022-10-31T09:34:53;9.63;;;6.40;;
70946;SDS011;58605;48.700;8.760;2022-10-31T09:37:25;7.80;;;5.73;;
70946;SDS011;58605;48.700;8.760;2022-10-31T09:39:58;8.37;;;5.60;;
70946;SDS011;58605;48.700;8.760;2022-10-31T09:42:26;7.30;;;6.00;;
70946;SDS011;58605;48.700;8.760;2022-10-31T09:45:11;12.10;;;6.23;;
70946;SDS011;58605;48.700;8.760;2022-10-31T09:47:49;8.57;;;6.20;;
70946;SDS011;58605;48.700;8.760;2022-10-31T09:50:27;9.53;;;6.50;;
70946;SDS011;58605;48.700;8.760;2022-10-31T09:52:58;9.43;;;6.50;;
70946;SDS011;58605;48.700;8.760;2022-10-31T09:55:30;9.40;;;6.47;;
70946;SDS011;58605;48.700;8.760;2022-10-31T09:58:02;10.40;;;6.20;;
70946;SDS011;58605;48.700;8.760;2022-10-31T10:00:28;10.60;;;7.07;;
70946;SDS011;58605;48.700;8.760;2022-10-31T10:02:59;10.67;;;6.33;;
70946;SDS011;58605;48.700;8.760;2022-10-31T10:05:33;12.70;;;5.90;;
70946;SDS011;58605;48.700;8.760;2022-10-31T10:08:07;8.37;;;5.80;;
70946;SDS011;58605;48.700;8.760;2022-10-31T10:10:42;10.30;;;5.87;;
70946;SDS011;58605;48.700;8.760;2022-10-31T10:13:30;10.57;;;6.40;;
70946;SDS011;58605;48.700;8.760;2022-10-31T10:16:19;9.32;;;5.68;;
70946;SDS011;58605;48.700;8.760;2022-10-31T10:19:02;6.87;;;4.83;;
70946;SDS011;58605;48.700;8.760;2022-10-31T10:21:46;12.07;;;5.03;;
70946;SDS011;58605;48.700;8.760;2022-10-31T10:24:22;7.20;;;4.30;;
70946;SDS011;58605;48.700;8.760;2022-10-31T10:26:58;5.40;;;4.80;;
70946;SDS011;58605;48.700;8.760;2022-10-31T10:29:32;9.37;;;4.70;;
70946;SDS011;58605;48.700;8.760;2022-10-31T10:32:03;5.77;;;4.07;;
70946;SDS011;58605;48.700;8.760;2022-10-31T10:34:37;12.40;;;5.37;;
70946;SDS011;58605;48.700;8.760;2022-10-31T10:37:09;5.40;;;4.30;;
70946;SDS011;58605;48.700;8.760;2022-10-31T10:39:46;6.50;;;4.17;;
70946;SDS011;58605;48.700;8.760;2022-10-31T10:42:16;6.13;;;4.30;;
70946;SDS011;58605;48.700;8.760;2022-10-31T10:45:00;6.03;;;4.30;;
70946;SDS011;58605;48.700;8.760;2022-10-31T10:47:57;6.77;;;4.20;;
70946;SDS011;58605;48.700;8.760;2022-10-31T10:50:35;7.90;;;4.30;;
70946;SDS011;58605;48.700;8.760;2022-10-31T10:53:06;7.27;;;4.90;;
70946;SDS011;58605;48.700;8.760;2022-10-31T10:55:58;5.90;;;4.30;;
70946;SDS011;58605;48.700;8.760;2022-10-31T10:58:33;6.40;;;4.00;;
70946;SDS011;58605;48.700;8.760;2022-10-31T11:00:59;6.93;;;4.50;;
70946;SDS011;58605;48.700;8.760;2022-10-31T11:03:24;7.43;;;4.40;;
70946;SDS011;58605;48.700;8.760;2022-10-31T11:05:53;7.40;;;4.60;;
70946;SDS011;58605;48.700;8.760;2022-10-31T11:08:23;7.87;;;4.67;;
70946;SDS011;58605;48.700;8.760;2022-10-31T11:10:55;9.40;;;4.40;;
70946;SDS011;58605;48.700;8.760;2022-10-31T11:13:23;6.80;;;4.23;;
70946;SDS011;58605;48.700;8.760;2022-10-31T11:15:51;9.90;;;4.77;;
70946;SDS011;58605;48.700;8.760;2022-10-31T11:18:21;7.53;;;4.50;;
70946;SDS011;58605;48.700;8.760;2022-10-31T11:20:52;8.53;;;5.03;;
70946;SDS011;58605;48.700;8.760;2022-10-31T11:23:20;7.33;;;4.87;;
70946;SDS011;58605;48.700;8.760;2022-10-31T11:25:48;8.67;;;4.93;;
70946;SDS011;58605;48.700;8.760;2022-10-31T11:28:15;8.27;;;5.77;;
70946;SDS011;58605;48.700;8.760;2022-10-31T11:30:42;7.33;;;5.00;;
70946;SDS011;58605;48.700;8.760;2022-10-31T11:33:12;8.90;;;5.60;;
70946;SDS011;58605;48.700;8.760;2022-10-31T11:35:44;9.23;;;5.57;;
70946;SDS011;58605;48.700;8.760;2022-10-31T11:38:13;9.73;;;5.83;;
70946;SDS011;58605;48.700;8.760;2022-10-31T11:40:50;10.07;;;5.70;;
70946;SDS011;58605;48.700;8.760;2022-10-31T11:43:18;7.13;;;5.20;;
70946;SDS011;58605;48.700;8.760;2022-10-31T11:45:44;9.30;;;5.63;;
70946;SDS011;58605;48.700;8.760;2022-10-31T11:48:15;6.53;;;4.90;;
70946;SDS011;58605;48.700;8.760;2022-10-31T11:50:42;8.27;;;5.67;;
70946;SDS011;58605;48.700;8.760;2022-10-31T11:53:16;9.63;;;5.70;;
70946;SDS011;58605;48.700;8.760;2022-10-31T11:55:44;6.00;;;5.23;;
70946;SDS011;58605;48.700;8.760;2022-10-31T11:58:22;7.97;;;5.83;;
70946;SDS011;58605;48.700;8.760;2022-10-31T12:00:49;7.07;;;5.33;;
70946;SDS011;58605;48.700;8.760;2022-10-31T12:03:23;11.17;;;6.27;;
70946;SDS011;58605;48.700;8.760;2022-10-31T12:05:58;9.40;;;5.00;;
70946;SDS011;58605;48.700;8.760;2022-10-31T12:08:29;8.60;;;5.73;;
70946;SDS011;58605;48.700;8.760;2022-10-31T12:10:58;10.07;;;6.17;;
70946;SDS011;58605;48.700;8.760;2022-10-31T12:13:33;8.73;;;6.03;;
70946;SDS011;58605;48.700;8.760;2022-10-31T12:16:05;8.40;;;5.50;;
70946;SDS011;58605;48.700;8.760;2022-10-31T12:18:44;7.27;;;5.67;;
70946;SDS011;58605;48.700;8.760;2022-10-31T12:21:26;8.27;;;5.80;;
70946;SDS011;58605;48.700;8.760;2022-10-31T12:24:16;7.63;;;5.33;;
70946;SDS011;58605;48.700;8.760;2022-10-31T12:26:53;7.53;;;5.60;;
70946;SDS011;58605;48.700;8.760;2022-10-31T12:29:32;7.63;;;5.80;;
70946;SDS011;58605;48.700;8.760;2022-10-31T12:32:20;9.53;;;5.57;;
70946;SDS011;58605;48.700;8.760;2022-10-31T12:34:58;9.57;;;6.10;;
70946;SDS011;58605;48.700;8.760;2022-10-31T12:37:49;7.80;;;6.23;;
70946;SDS011;58605;48.700;8.760;2022-10-31T12:40:32;8.93;;;5.63;;
70946;SDS011;58605;48.700;8.760;2022-10-31T12:43:12;7.53;;;5.70;;
70946;SDS011;58605;48.700;8.760;2022-10-31T12:45:51;10.27;;;6.23;;
70946;SDS011;58605;48.700;8.760;2022-10-31T12:48:37;7.47;;;5.53;;
70946;SDS011;58605;48.700;8.760;2022-10-31T12:51:17;8.07;;;6.00;;
70946;SDS011;58605;48.700;8.760;2022-10-31T12:53:55;8.67;;;6.00;;
70946;SDS011;58605;48.700;8.760;2022-10-31T12:56:42;10.70;;;6.40;;
70946;SDS011;58605;48.700;8.760;2022-10-31T12:59:19;9.17;;;5.93;;
70946;SDS011;58605;48.700;8.760;2022-10-31T13:01:55;6.87;;;5.97;;
70946;SDS011;58605;48.700;8.760;2022-10-31T13:04:30;9.07;;;6.27;;
70946;SDS011;58605;48.700;8.760;2022-10-31T13:07:04;6.87;;;6.13;;
70946;SDS011;58605;48.700;8.760;2022-10-31T13:09:36;8.03;;;6.27;;
70946;SDS011;58605;48.700;8.760;2022-10-31T13:12:08;8.57;;;6.37;;
70946;SDS011;58605;48.700;8.760;2022-10-31T13:14:38;11.37;;;6.27;;
70946;SDS011;58605;48.700;8.760;2022-10-31T13:17:08;9.43;;;6.10;;
70946;SDS011;58605;48.700;8.760;2022-10-31T13:19:39;8.07;;;6.00;;
70946;SDS011;58605;48.700;8.760;2022-10-31T13:22:08;7.67;;;6.03;;
70946;SDS011;58605;48.700;8.760;2022-10-31T13:24:39;7.60;;;6.27;;
70946;SDS011;58605;48.700;8.760;2022-10-31T13:27:21;9.20;;;6.33;;
70946;SDS011;58605;48.700;8.760;2022-10-31T13:29:52;8.17;;;5.77;;
70946;SDS011;58605;48.700;8.760;2022-10-31T13:32:24;6.23;;;5.63;;
70946;SDS011;58605;48.700;8.760;2022-10-31T13:34:53;8.63;;;5.90;;
70946;SDS011;58605;48.700;8.760;2022-10-31T13:37:25;7.20;;;6.10;;
70946;SDS011;58605;48.700;8.760;2022-10-31T13:40:02;7.73;;;5.97;;
70946;SDS011;58605;48.700;8.760;2022-10-31T13:42:43;10.33;;;6.00;;
70946;SDS011;58605;48.700;8.760;2022-10-31T13:45:19;9.63;;;6.00;;
70946;SDS011;58605;48.700;8.760;2022-10-31T13:47:54;8.60;;;6.10;;
70946;SDS011;58605;48.700;8.760;2022-10-31T13:50:26;10.13;;;5.93;;
70946;SDS011;58605;48.700;8.760;2022-10-31T13:53:03;7.47;;;5.50;;
70946;SDS011;58605;48.700;8.760;2022-10-31T13:55:37;8.87;;;5.80;;
70946;SDS011;58605;48.700;8.760;2022-10-31T13:58:19;6.83;;;5.60;;
70946;SDS011;58605;48.700;8.760;2022-10-31T14:01:01;11.27;;;5.60;;
70946;SDS011;58605;48.700;8.760;2022-10-31T14:03:42;8.33;;;5.30;;
70946;SDS011;58605;48.700;8.760;2022-10-31T14:06:10;7.10;;;6.00;;
70946;SDS011;58605;48.700;8.760;2022-10-31T14:08:37;6.87;;;5.10;;
70946;SDS011;58605;48.700;8.760;2022-10-31T14:11:06;7.60;;;5.37;;
70946;SDS011;58605;48.700;8.760;2022-10-31T14:13:36;7.90;;;5.17;;
70946;SDS011;58605;48.700;8.760;2022-10-31T14:16:16;9.50;;;6.00;;
70946;SDS011;58605;48.700;8.760;2022-10-31T14:18:46;7.57;;;5.70;;
70946;SDS011;58605;48.700;8.760;2022-10-31T14:21:16;9.43;;;5.57;;
70946;SDS011;58605;48.700;8.760;2022-10-31T14:23:51;12.20;;;5.70;;
70946;SDS011;58605;48.700;8.760;2022-10-31T14:26:19;7.70;;;5.53;;
70946;SDS011;58605;48.700;8.760;2022-10-31T14:28:59;11.47;;;5.80;;
70946;SDS011;58605;48.700;8.760;2022-10-31T14:31:36;6.17;;;5.10;;
70946;SDS011;58605;48.700;8.760;2022-10-31T14:34:21;9.87;;;5.80;;
70946;SDS011;58605;48.700;8.760;2022-10-31T14:40:27;6.63;;;5.57;;
70946;SDS011;58605;48.700;8.760;2022-10-31T14:43:13;10.67;;;6.00;;
70946;SDS011;58605;48.700;8.760;2022-10-31T14:45:52;9.63;;;6.97;;
70946;SDS011;58605;48.700;8.760;2022-10-31T14:48:33;6.37;;;5.70;;
70946;SDS011;58605;48.700;8.760;2022-10-31T14:51:14;9.63;;;5.90;;
70946;SDS011;58605;48.700;8.760;2022-10-31T14:53:45;8.35;;;5.45;;
70946;SDS011;58605;48.700;8.760;2022-10-31T14:56:14;8.13;;;5.30;;
70946;SDS011;58605;48.700;8.760;2022-10-31T14:58:46;7.67;;;5.87;;
70946;SDS011;58605;48.700;8.760;2022-10-31T15:01:16;9.13;;;5.37;;
70946;SDS011;58605;48.700;8.760;2022-10-31T15:03:46;8.17;;;5.57;;
70946;SDS011;58605;48.700;8.760;2022-10-31T15:06:13;9.10;;;6.00;;
70946;SDS011;58605;48.700;8.760;2022-10-31T15:08:45;8.63;;;5.90;;
70946;SDS011;58605;48.700;8.760;2022-10-31T15:11:15;9.03;;;5.63;;